Time;durP1;ratioP1;P1;durP2;ratioP2;P2;SDS_P1;SDS_P2;PMS_P1;PMS_P2;Temp;Humidity;BMP_temperature;BMP_pressure;BME280_temperature;BME280_humidity;BME280_pressure;Samples;Min_cycle;Max_cycle;Signal;HPM_P1;HPM_P2
2021/11/10 00:00:18;;;;;;;;;;;;;;;14.17;58.25;100375.72;2084023;28;19917;-44
2021/11/10 00:01:19;;;;;;;;;;;;;;;14.17;58.28;100370.31;2085274;28;19912;-44
2021/11/10 00:02:19;;;;;;;;;;;;;;;14.17;58.27;100364.88;2083902;28;19946;-44
2021/11/10 00:03:20;;;;;;;;;;;;;;;14.15;58.27;100360.41;2083226;28;19952;-44
2021/11/10 00:04:21;;;;;;;;;;;;;;;14.16;58.23;100355.88;2085566;28;19921;-44
2021/11/10 00:05:21;;;;;;;;;;;;;;;14.15;58.23;100352.28;2084132;28;19916;-45
2021/11/10 00:06:22;;;;;;;;;;;;;;;14.17;58.36;100351.31;2083410;28;19956;-44
2021/11/10 00:07:22;;;;;;;;;;;;;;;14.15;58.27;100346.88;2083586;28;20673;-45
2021/11/10 00:08:23;;;;;;;;;;;;;;;14.16;58.30;100347.75;2083901;28;19924;-44
2021/11/10 00:09:23;;;;;;;;;;;;;;;14.15;58.16;100346.88;2085293;28;20250;-44
2021/11/10 00:10:24;;;;;;;;;;;;;;;14.16;58.20;100347.75;2084628;28;19908;-44
2021/11/10 00:11:24;;;;;;;;;;;;;;;14.16;58.23;100347.75;2082406;28;20103;-44
2021/11/10 00:12:24;;;;;;;;;;;;;;;14.15;58.27;100346.88;2076417;28;19976;-44
2021/11/10 00:13:25;;;;;;;;;;;;;;;14.15;58.34;100338.72;2078135;28;19917;-43
2021/11/10 00:14:25;;;;;;;;;;;;;;;14.15;58.30;100336.00;2090122;28;19931;-44
2021/11/10 00:15:25;;;;;;;;;;;;;;;14.17;58.17;100335.06;2082695;28;19970;-44
2021/11/10 00:16:26;;;;;;;;;;;;;;;14.15;58.24;100336.00;2084110;28;19916;-44
2021/11/10 00:17:27;;;;;;;;;;;;;;;14.15;58.26;100333.31;2084544;28;19964;-44
2021/11/10 00:18:28;;;;;;;;;;;;;;;14.15;58.25;100330.59;2082215;28;20285;-46
2021/11/10 00:19:28;;;;;;;;;;;;;;;14.15;58.18;100337.88;2076809;28;19924;-44
2021/11/10 00:20:28;;;;;;;;;;;;;;;14.15;58.23;100336.00;2086143;28;20310;-44
2021/11/10 00:21:29;;;;;;;;;;;;;;;14.15;58.23;100336.00;2083228;28;20708;-45
2021/11/10 00:22:29;;;;;;;;;;;;;;;14.15;58.26;100338.72;2086525;28;19956;-44
2021/11/10 00:23:30;;;;;;;;;;;;;;;14.15;58.27;100336.00;2084884;28;20285;-44
2021/11/10 00:24:30;;;;;;;;;;;;;;;14.15;58.18;100333.31;2084924;28;19920;-44
2021/11/10 00:25:30;;;;;;;;;;;;;;;14.16;58.18;100339.63;2084675;28;19939;-44
2021/11/10 00:26:31;;;;;;;;;;;;;;;14.15;58.19;100330.59;2083452;28;20091;-44
2021/11/10 00:27:31;;;;;;;;;;;;;;;14.15;58.25;100336.00;2085860;28;20326;-44
2021/11/10 00:28:31;;;;;;;;;;;;;;;14.15;58.16;100333.31;2080784;28;19921;-44
2021/11/10 00:29:32;;;;;;;;;;;;;;;14.14;58.23;100328.88;2084863;28;19916;-45
2021/11/10 00:30:32;;;;;;;;;;;;;;;14.17;58.25;100326.94;2084611;28;19916;-44
2021/11/10 00:31:33;;;;;;;;;;;;;;;14.15;58.24;100325.16;2091349;28;19912;-44
2021/11/10 00:32:33;;;;;;;;;;;;;;;14.14;58.07;100323.44;2093753;28;19910;-44
2021/11/10 00:33:33;;;;;;;;;;;;;;;14.14;58.18;100328.88;2081897;28;20318;-43
2021/11/10 00:34:34;;;;;;;;;;;;;;;14.13;58.23;100331.69;2082386;28;19966;-44
2021/11/10 00:35:35;;;;;;;;;;;;;;;14.15;58.29;100335.16;2085284;28;19920;-44
2021/11/10 00:36:35;;;;;;;;;;;;;;;14.14;58.20;100328.03;2082998;28;19908;-44
2021/11/10 00:37:35;;;;;;;;;;;;;;;14.14;58.18;100334.31;2085053;28;19987;-44
2021/11/10 00:38:38;;;;;;;;;;;;;;;14.13;58.24;100335.28;2084392;28;19951;-44
2021/11/10 00:39:39;;;;;;;;;;;;;;;14.14;58.23;100339.72;2084520;28;19916;-45
2021/11/10 00:40:39;;;;;;;;;;;;;;;14.14;58.24;100337.00;2085144;28;20004;-44
2021/11/10 00:41:40;;;;;;;;;;;;;;;14.14;58.28;100333.44;2088772;28;19912;-44
2021/11/10 00:42:40;;;;;;;;;;;;;;;14.15;58.24;100338.72;2083872;28;19917;-45
2021/11/10 00:43:40;;;;;;;;;;;;;;;14.13;58.26;100338.00;2084283;28;19916;-44
2021/11/10 00:44:41;;;;;;;;;;;;;;;14.14;58.15;100334.31;2082224;28;20416;-44
2021/11/10 00:45:41;;;;;;;;;;;;;;;14.14;58.16;100333.44;2083301;28;19913;-44
2021/11/10 00:46:42;;;;;;;;;;;;;;;14.14;58.24;100342.44;2091429;28;19918;-44
2021/11/10 00:47:42;;;;;;;;;;;;;;;14.13;58.25;100327.16;2090014;28;20427;-43
2021/11/10 00:48:42;;;;;;;;;;;;;;;14.15;58.18;100319.75;2085877;28;20057;-44
2021/11/10 00:49:43;;;;;;;;;;;;;;;14.14;58.21;100318.03;2081502;28;19962;-44
2021/11/10 00:50:43;;;;;;;;;;;;;;;14.14;58.21;100318.03;2085331;28;20177;-46
2021/11/10 00:51:43;;;;;;;;;;;;;;;14.13;58.16;100316.31;2084814;28;20231;-45
2021/11/10 00:52:44;;;;;;;;;;;;;;;14.14;58.18;100319.88;2082261;28;19920;-44
2021/11/10 00:53:44;;;;;;;;;;;;;;;14.15;58.23;100313.47;2085662;28;20298;-46
2021/11/10 00:54:44;;;;;;;;;;;;;;;14.14;58.18;100307.19;2082234;28;19992;-44
2021/11/10 00:55:45;;;;;;;;;;;;;;;14.14;58.15;100293.63;2083072;28;19920;-45
2021/11/10 00:56:45;;;;;;;;;;;;;;;14.14;58.21;100280.06;2084851;28;19920;-44
2021/11/10 00:57:45;;;;;;;;;;;;;;;14.14;58.19;100279.22;2081965;28;19935;-45
2021/11/10 00:58:46;;;;;;;;;;;;;;;14.12;58.14;100273.91;2077275;28;19924;-45
2021/11/10 00:59:46;;;;;;;;;;;;;;;14.13;58.08;100272.94;2079825;28;19920;-44
2021/11/10 01:00:46;;;;;;;;;;;;;;;14.11;58.29;100272.19;2079619;28;19922;-45
2021/11/10 01:01:47;;;;;;;;;;;;;;;14.12;58.20;100271.19;2083960;28;19916;-45
2021/11/10 01:02:47;;;;;;;;;;;;;;;14.13;58.26;100266.63;2084585;28;20367;-45
2021/11/10 01:03:47;;;;;;;;;;;;;;;14.12;58.24;100260.34;2084501;28;19918;-44
2021/11/10 01:04:47;;;;;;;;;;;;;;;14.11;58.23;100258.63;2080069;28;19913;-45
2021/11/10 01:05:48;;;;;;;;;;;;;;;14.13;58.21;100272.03;2085970;28;19912;-45
2021/11/10 01:06:48;;;;;;;;;;;;;;;14.12;58.14;100265.75;2085103;28;19913;-44
2021/11/10 01:07:48;;;;;;;;;;;;;;;14.12;58.11;100260.34;2079585;28;20338;-45
2021/11/10 01:08:52;;;;;;;;;;;;;;;14.11;58.19;100277.59;2079840;28;19927;-44
2021/11/10 01:09:58;;;;;;;;;;;;;;;14.12;58.27;100275.75;2083129;28;19916;-45
2021/11/10 01:10:59;;;;;;;;;;;;;;;14.13;58.22;100288.31;2085314;28;19965;-44
2021/11/10 01:12:00;;;;;;;;;;;;;;;14.13;58.25;100289.19;2083940;28;19912;-44
2021/11/10 01:13:01;;;;;;;;;;;;;;;14.13;58.28;100293.72;2077516;28;19913;-44
2021/11/10 01:14:01;;;;;;;;;;;;;;;14.13;58.20;100291.91;2082033;28;19921;-45
2021/11/10 01:15:03;;;;;;;;;;;;;;;14.12;58.24;100287.44;2077046;28;19979;-44
2021/11/10 01:16:03;;;;;;;;;;;;;;;14.13;58.21;100282.88;2084551;28;19924;-45
2021/11/10 01:17:04;;;;;;;;;;;;;;;14.13;58.13;100288.31;2082510;28;19920;-45
2021/11/10 01:18:04;;;;;;;;;;;;;;;14.13;58.15;100291.91;2084256;28;20110;-45
2021/11/10 01:19:04;;;;;;;;;;;;;;;14.13;58.13;100294.63;2076879;28;19916;-45
2021/11/10 01:20:06;;;;;;;;;;;;;;;14.13;58.12;100299.16;2080209;28;20066;-44
2021/11/10 01:21:06;;;;;;;;;;;;;;;14.12;58.21;100295.59;2076577;28;19925;-45
2021/11/10 01:22:06;;;;;;;;;;;;;;;14.13;58.20;100294.63;2079984;28;19917;-44
2021/11/10 01:23:08;;;;;;;;;;;;;;;14.12;58.31;100298.28;2081835;28;19961;-44
2021/11/10 01:24:09;;;;;;;;;;;;;;;14.12;58.06;100292.88;2080723;28;19936;-44
2021/11/10 01:25:09;;;;;;;;;;;;;;;14.13;58.19;100294.63;2083776;28;20258;-45
2021/11/10 01:26:10;;;;;;;;;;;;;;;14.14;58.19;100295.47;2084632;28;19920;-45
2021/11/10 01:27:10;;;;;;;;;;;;;;;14.13;58.17;100293.72;2084304;28;20805;-44
2021/11/10 01:28:10;;;;;;;;;;;;;;;14.12;58.15;100292.00;2081880;28;20470;-45
2021/11/10 01:29:11;;;;;;;;;;;;;;;14.13;58.28;100293.72;2084686;28;19916;-45
2021/11/10 01:30:11;;;;;;;;;;;;;;;14.12;58.12;100292.88;2083069;28;19916;-44
2021/11/10 01:31:12;;;;;;;;;;;;;;;14.12;58.19;100292.88;2085105;28;19944;-45
2021/11/10 01:32:12;;;;;;;;;;;;;;;14.13;58.22;100293.72;2084386;28;19905;-44
2021/11/10 01:33:12;;;;;;;;;;;;;;;14.12;58.13;100295.59;2082643;28;19923;-44
2021/11/10 01:34:13;;;;;;;;;;;;;;;14.11;58.27;100293.88;2085449;28;19920;-45
2021/11/10 01:35:14;;;;;;;;;;;;;;;14.11;58.23;100299.28;2083311;28;19956;-45
2021/11/10 01:36:14;;;;;;;;;;;;;;;14.11;58.13;100295.69;2085265;28;20364;-45
2021/11/10 01:37:14;;;;;;;;;;;;;;;14.10;58.21;100300.25;2082255;28;20007;-44
2021/11/10 01:38:14;;;;;;;;;;;;;;;14.12;58.24;100298.28;2081869;28;20328;-44
2021/11/10 01:39:15;;;;;;;;;;;;;;;14.12;58.19;100295.59;2085420;28;19916;-46
2021/11/10 01:40:16;;;;;;;;;;;;;;;14.12;58.25;100303.72;2083020;28;19917;-45
2021/11/10 01:41:17;;;;;;;;;;;;;;;14.12;58.19;100302.84;2083849;28;20003;-45
2021/11/10 01:42:17;;;;;;;;;;;;;;;14.12;58.12;100298.28;2084513;28;20203;-46
2021/11/10 01:43:17;;;;;;;;;;;;;;;14.11;58.14;100302.00;2082492;28;19926;-45
2021/11/10 01:44:19;;;;;;;;;;;;;;;14.13;58.22;100296.44;2085414;28;20314;-46
2021/11/10 01:45:19;;;;;;;;;;;;;;;14.12;58.20;100294.72;2083096;28;19908;-45
2021/11/10 01:46:20;;;;;;;;;;;;;;;14.12;58.21;100282.03;2082545;28;19916;-45
2021/11/10 01:47:20;;;;;;;;;;;;;;;14.12;58.10;100286.59;2085360;28;20489;-45
2021/11/10 01:48:20;;;;;;;;;;;;;;;14.11;58.20;100291.16;2082195;28;19916;-45
2021/11/10 01:49:21;;;;;;;;;;;;;;;14.11;58.25;100291.16;2085203;28;19917;-45
2021/11/10 01:50:21;;;;;;;;;;;;;;;14.11;58.17;100285.72;2082386;28;20335;-46
2021/11/10 01:51:24;;;;;;;;;;;;;;;14.12;58.24;100282.03;2082661;28;19927;-45
2021/11/10 01:52:24;;;;;;;;;;;;;;;14.12;58.14;100287.44;2085427;28;19916;-45
2021/11/10 01:53:25;;;;;;;;;;;;;;;14.13;58.27;100277.47;2083609;28;19916;-44
2021/11/10 01:54:28;;;;;;;;;;;;;;;14.13;58.14;100282.88;2082805;28;20334;-44
2021/11/10 01:55:28;;;;;;;;;;;;;;;14.12;58.23;100276.59;2078742;28;20776;-44
2021/11/10 01:56:28;;;;;;;;;;;;;;;14.13;58.18;100274.75;2079833;28;19951;-44
2021/11/10 01:57:30;;;;;;;;;;;;;;;14.11;58.14;100274.88;2084820;28;19960;-45
2021/11/10 01:58:30;;;;;;;;;;;;;;;14.11;58.16;100257.72;2083753;28;19923;-44
2021/11/10 01:59:33;;;;;;;;;;;;;;;14.11;58.17;100258.63;2085347;28;19916;-44
2021/11/10 02:00:34;;;;;;;;;;;;;;;14.11;58.15;100253.19;2085721;28;19967;-44
2021/11/10 02:01:45;;;;;;;;;;;;;;;14.11;58.18;100247.78;2079933;28;19917;-44
2021/11/10 02:02:46;;;;;;;;;;;;;;;14.11;58.27;100247.78;2085637;28;20018;-44
2021/11/10 02:03:46;;;;;;;;;;;;;;;14.11;58.24;100253.19;2086514;28;20831;-44
2021/11/10 02:04:47;;;;;;;;;;;;;;;14.11;58.20;100264.03;2085264;28;19916;-44
2021/11/10 02:05:48;;;;;;;;;;;;;;;14.11;58.28;100250.50;2084687;28;20010;-44
2021/11/10 02:06:48;;;;;;;;;;;;;;;14.11;58.20;100258.63;2082046;28;20145;-44
2021/11/10 02:07:49;;;;;;;;;;;;;;;14.11;58.22;100257.72;2085780;28;19961;-44
2021/11/10 02:08:50;;;;;;;;;;;;;;;14.12;58.25;100259.47;2083569;28;19952;-44
2021/11/10 02:09:50;;;;;;;;;;;;;;;14.11;58.27;100263.16;2079892;28;19917;-45
2021/11/10 02:10:51;;;;;;;;;;;;;;;14.11;58.29;100263.16;2085547;28;19916;-45
2021/11/10 02:11:52;;;;;;;;;;;;;;;14.11;58.23;100257.72;2084881;28;19927;-44
2021/11/10 02:12:56;;;;;;;;;;;;;;;14.11;58.21;100264.03;2083990;28;20538;-43
2021/11/10 02:13:57;;;;;;;;;;;;;;;14.11;58.23;100253.19;2085384;28;19920;-44
2021/11/10 02:14:58;;;;;;;;;;;;;;;14.10;58.14;100256.88;2084115;28;19925;-44
2021/11/10 02:16:00;;;;;;;;;;;;;;;14.12;58.08;100259.47;2086057;28;19973;-45
2021/11/10 02:17:00;;;;;;;;;;;;;;;14.11;58.20;100258.63;2083266;28;20003;-45
2021/11/10 02:18:04;;;;;;;;;;;;;;;14.10;58.22;100256.88;2079463;28;20590;-45
2021/11/10 02:19:05;;;;;;;;;;;;;;;14.10;58.24;100256.88;2086948;28;20007;-45
2021/11/10 02:20:07;;;;;;;;;;;;;;;14.10;58.23;100254.16;2083741;28;20013;-45
2021/11/10 02:21:09;;;;;;;;;;;;;;;14.10;58.26;100256.88;2084314;28;19956;-45
2021/11/10 02:22:12;;;;;;;;;;;;;;;14.10;58.16;100251.44;2078961;28;19967;-45
2021/11/10 02:23:12;;;;;;;;;;;;;;;14.10;58.20;100245.19;2083108;28;20047;-45
2021/11/10 02:24:13;;;;;;;;;;;;;;;14.10;58.16;100245.19;2087233;28;19916;-44
2021/11/10 02:25:13;;;;;;;;;;;;;;;14.09;58.21;100244.31;2086463;28;19938;-44
2021/11/10 02:26:15;;;;;;;;;;;;;;;14.10;58.25;100246.03;2085005;28;19921;-44
2021/11/10 02:27:18;;;;;;;;;;;;;;;14.11;58.19;100244.19;2086101;28;19962;-44
2021/11/10 02:28:19;;;;;;;;;;;;;;;14.09;58.18;100238.91;2084049;28;19959;-46
2021/11/10 02:29:21;;;;;;;;;;;;;;;14.10;58.15;100232.47;2085040;28;19917;-45
2021/11/10 02:30:22;;;;;;;;;;;;;;;14.10;58.16;100240.59;2082411;28;20008;-45
2021/11/10 02:31:23;;;;;;;;;;;;;;;14.10;58.16;100229.75;2086672;28;19984;-45
2021/11/10 02:32:23;;;;;;;;;;;;;;;14.10;58.24;100232.47;2083824;28;19978;-45
2021/11/10 02:33:27;;;;;;;;;;;;;;;14.09;58.13;100222.63;2083047;28;21314;-48
2021/11/10 02:34:28;;;;;;;;;;;;;;;14.10;58.23;100216.22;2077240;28;19928;-45
2021/11/10 02:35:29;;;;;;;;;;;;;;;14.09;58.18;100206.38;2083526;28;20392;-45
2021/11/10 02:36:30;;;;;;;;;;;;;;;14.09;58.21;100200.94;2084011;28;19916;-45
2021/11/10 02:37:31;;;;;;;;;;;;;;;14.09;58.12;100206.38;2085629;28;20635;-46
2021/11/10 02:38:32;;;;;;;;;;;;;;;14.08;58.21;100210.03;2082455;28;20172;-45
2021/11/10 02:39:33;;;;;;;;;;;;;;;14.09;58.25;100202.78;2079234;28;19939;-45
2021/11/10 02:40:34;;;;;;;;;;;;;;;14.09;58.13;100206.38;2079051;28;19916;-44
2021/11/10 02:41:35;;;;;;;;;;;;;;;14.10;58.20;100207.22;2078614;28;19916;-44
2021/11/10 02:42:35;;;;;;;;;;;;;;;14.10;58.31;100202.66;2079181;28;19990;-45
2021/11/10 02:43:35;;;;;;;;;;;;;;;14.09;58.15;100200.94;2082584;28;20536;-45
2021/11/10 02:44:36;;;;;;;;;;;;;;;14.09;58.29;100192.81;2085100;28;19923;-46
2021/11/10 02:45:36;;;;;;;;;;;;;;;14.09;58.14;100192.81;2085933;28;19947;-45
2021/11/10 02:46:37;;;;;;;;;;;;;;;14.09;58.13;100184.69;2084368;28;19920;-45
2021/11/10 02:47:37;;;;;;;;;;;;;;;14.08;58.19;100182.94;2086399;28;19916;-45
2021/11/10 02:48:37;;;;;;;;;;;;;;;14.09;58.16;100189.25;2078639;28;20464;-45
2021/11/10 02:49:38;;;;;;;;;;;;;;;14.09;58.25;100189.25;2078895;28;20002;-45
2021/11/10 02:50:38;;;;;;;;;;;;;;;14.09;58.22;100195.53;2086105;28;19916;-45
2021/11/10 02:51:55;;;;;;;;;;;;;;;14.09;58.09;100198.22;2081629;28;19935;-45
2021/11/10 02:52:56;;;;;;;;;;;;;;;14.10;58.20;100202.66;2083628;28;19917;-45
2021/11/10 02:53:56;;;;;;;;;;;;;;;14.09;58.18;100200.09;2084919;28;19943;-45
2021/11/10 02:54:57;;;;;;;;;;;;;;;14.09;58.16;100200.94;2079107;28;19920;-45
2021/11/10 02:55:57;;;;;;;;;;;;;;;14.09;58.21;100200.09;2078626;28;19927;-44
2021/11/10 02:56:59;;;;;;;;;;;;;;;14.08;58.25;100204.63;2081925;28;19917;-46
2021/11/10 02:57:59;;;;;;;;;;;;;;;14.10;58.13;100207.22;2089013;28;20293;-45
2021/11/10 02:59:00;;;;;;;;;;;;;;;14.09;58.09;100216.34;2084497;28;19940;-45
2021/11/10 03:00:00;;;;;;;;;;;;;;;14.09;58.22;100210.94;2078731;28;20640;-45
2021/11/10 03:01:03;;;;;;;;;;;;;;;14.08;58.22;100212.75;2085388;28;20255;-45
2021/11/10 03:02:04;;;;;;;;;;;;;;;14.09;58.18;100206.38;2084851;28;19919;-45
2021/11/10 03:03:05;;;;;;;;;;;;;;;14.09;58.24;100205.50;2081426;28;19917;-45
2021/11/10 03:04:16;;;;;;;;;;;;;;;14.09;58.25;100205.50;2086195;28;19912;-45
2021/11/10 03:05:17;;;;;;;;;;;;;;;14.09;58.23;100205.50;2084130;28;19927;-46
2021/11/10 03:06:17;;;;;;;;;;;;;;;14.08;58.18;100212.75;2086301;28;19923;-45
2021/11/10 03:07:18;;;;;;;;;;;;;;;14.09;58.17;100206.38;2084137;28;20372;-45
2021/11/10 03:08:21;;;;;;;;;;;;;;;14.09;58.18;100219.91;2084223;28;19919;-45
2021/11/10 03:09:23;;;;;;;;;;;;;;;14.09;58.24;100217.22;2084459;28;19919;-45
2021/11/10 03:10:24;;;;;;;;;;;;;;;14.09;58.15;100214.50;2091665;28;19916;-45
2021/11/10 03:11:29;;;;;;;;;;;;;;;14.07;58.18;100202.91;2091320;28;19916;-45
2021/11/10 03:12:29;;;;;;;;;;;;;;;14.08;58.23;100199.19;2085469;28;19916;-45
2021/11/10 03:13:30;;;;;;;;;;;;;;;14.08;58.15;100199.19;2077891;28;20652;-46
2021/11/10 03:14:32;;;;;;;;;;;;;;;14.08;58.14;100193.78;2084410;28;20097;-45
2021/11/10 03:15:36;;;;;;;;;;;;;;;14.08;58.20;100203.75;2085331;28;20198;-45
2021/11/10 03:16:36;;;;;;;;;;;;;;;14.08;58.23;100203.75;2081035;28;19917;-46
2021/11/10 03:17:37;;;;;;;;;;;;;;;14.07;58.20;100208.31;2085177;28;19986;-46
2021/11/10 03:18:37;;;;;;;;;;;;;;;14.08;58.23;100210.03;2082710;28;19917;-46
2021/11/10 03:19:38;;;;;;;;;;;;;;;14.09;58.30;100210.94;2084781;28;19916;-45
2021/11/10 03:20:39;;;;;;;;;;;;;;;14.08;58.22;100215.47;2082812;28;19912;-45
2021/11/10 03:21:39;;;;;;;;;;;;;;;14.07;58.23;100213.75;2083885;28;19916;-45
2021/11/10 03:22:40;;;;;;;;;;;;;;;14.08;58.24;100212.75;2085008;28;19916;-45
2021/11/10 03:23:40;;;;;;;;;;;;;;;14.07;58.18;100208.31;2083984;28;19917;-44
2021/11/10 03:24:40;;;;;;;;;;;;;;;14.07;58.35;100221.00;2086119;28;20083;-45
2021/11/10 03:25:41;;;;;;;;;;;;;;;14.08;58.22;100226.28;2086283;28;20054;-45
2021/11/10 03:26:42;;;;;;;;;;;;;;;14.09;58.18;100216.34;2082512;28;19909;-45
2021/11/10 03:27:43;;;;;;;;;;;;;;;14.10;58.13;100223.50;2084763;28;19916;-45
2021/11/10 03:28:43;;;;;;;;;;;;;;;14.09;58.20;100211.78;2082203;28;20278;-45
2021/11/10 03:29:50;;;;;;;;;;;;;;;14.08;58.16;100209.19;2085749;28;20011;-45
2021/11/10 03:30:50;;;;;;;;;;;;;;;14.08;58.14;100210.03;2079488;28;20267;-45
2021/11/10 03:31:51;;;;;;;;;;;;;;;14.08;58.23;100207.31;2083491;28;19999;-43
2021/11/10 03:32:52;;;;;;;;;;;;;;;14.08;58.14;100210.03;2085569;28;20331;-45
2021/11/10 03:33:52;;;;;;;;;;;;;;;14.07;58.21;100205.59;2082631;28;20316;-46
2021/11/10 03:34:52;;;;;;;;;;;;;;;14.06;58.18;100198.47;2084343;28;19923;-45
2021/11/10 03:35:53;;;;;;;;;;;;;;;14.07;58.19;100208.31;2085899;28;20599;-45
2021/11/10 03:36:54;;;;;;;;;;;;;;;14.08;58.31;100210.03;2081370;28;19924;-45
2021/11/10 03:37:54;;;;;;;;;;;;;;;14.05;58.18;100204.84;2081501;28;19944;-45
2021/11/10 03:38:54;;;;;;;;;;;;;;;14.06;58.21;100198.47;2083889;28;19922;-45
2021/11/10 03:39:55;;;;;;;;;;;;;;;14.06;58.19;100201.19;2085613;28;19928;-45
2021/11/10 03:40:55;;;;;;;;;;;;;;;14.06;58.16;100189.44;2084651;28;19954;-45
2021/11/10 03:41:55;;;;;;;;;;;;;;;14.06;58.24;100195.75;2084284;28;20157;-45
2021/11/10 03:42:56;;;;;;;;;;;;;;;14.07;58.23;100196.63;2085690;28;19974;-45
2021/11/10 03:43:56;;;;;;;;;;;;;;;14.06;58.20;100190.34;2083709;28;20270;-45
2021/11/10 03:44:56;;;;;;;;;;;;;;;14.06;58.13;100176.78;2084286;28;20657;-45
2021/11/10 03:45:57;;;;;;;;;;;;;;;14.06;58.18;100184.91;2085680;28;19917;-45
2021/11/10 03:46:57;;;;;;;;;;;;;;;14.06;58.21;100174.06;2085181;28;20311;-45
2021/11/10 03:48:00;;;;;;;;;;;;;;;14.06;58.23;100176.78;2091092;28;19955;-44
2021/11/10 03:49:00;;;;;;;;;;;;;;;14.06;58.24;100184.91;2086213;28;19943;-45
2021/11/10 03:50:00;;;;;;;;;;;;;;;14.06;58.18;100173.19;2082951;28;19920;-45
2021/11/10 03:51:01;;;;;;;;;;;;;;;14.05;58.23;100172.31;2086241;28;20082;-45
2021/11/10 03:52:01;;;;;;;;;;;;;;;14.05;58.27;100177.75;2083373;28;20141;-45
2021/11/10 03:53:02;;;;;;;;;;;;;;;14.04;58.29;100172.47;2085192;28;19916;-45
2021/11/10 03:54:02;;;;;;;;;;;;;;;14.06;58.26;100178.59;2086069;28;19952;-45
2021/11/10 03:55:03;;;;;;;;;;;;;;;14.05;58.26;100169.63;2083001;28;19911;-44
2021/11/10 03:56:04;;;;;;;;;;;;;;;14.06;58.24;100184.91;2086035;28;20233;-45
2021/11/10 03:57:04;;;;;;;;;;;;;;;14.07;58.21;100191.19;2083663;28;19917;-44
2021/11/10 03:58:05;;;;;;;;;;;;;;;14.05;58.31;100199.44;2085187;28;19953;-45
2021/11/10 03:59:05;;;;;;;;;;;;;;;14.06;58.21;100208.41;2082835;28;19970;-44
2021/11/10 04:00:06;;;;;;;;;;;;;;;14.06;58.17;100194.88;2079885;28;21940;-45
2021/11/10 04:01:07;;;;;;;;;;;;;;;14.07;58.19;100193.91;2078073;28;19924;-45
2021/11/10 04:02:09;;;;;;;;;;;;;;;14.06;58.23;100195.75;2083967;28;19935;-45
2021/11/10 04:03:09;;;;;;;;;;;;;;;14.04;58.26;100181.44;2084782;28;19973;-45
2021/11/10 04:04:10;;;;;;;;;;;;;;;14.06;58.16;100186.75;2079364;28;19909;-44
2021/11/10 04:05:10;;;;;;;;;;;;;;;14.04;58.33;100184.16;2085818;28;19916;-44
2021/11/10 04:06:11;;;;;;;;;;;;;;;14.05;58.22;100194.00;2086553;28;19947;-44
2021/11/10 04:07:12;;;;;;;;;;;;;;;14.06;58.09;100197.56;2088431;28;19962;-44
2021/11/10 04:08:12;;;;;;;;;;;;;;;14.06;58.25;100193.03;2084164;28;19967;-45
2021/11/10 04:09:12;;;;;;;;;;;;;;;14.05;58.33;100188.59;2083583;28;20015;-44
2021/11/10 04:10:13;;;;;;;;;;;;;;;14.07;58.05;100189.34;2079737;28;20313;-45
2021/11/10 04:11:13;;;;;;;;;;;;;;;14.05;58.20;100188.59;2081712;28;19909;-45
2021/11/10 04:12:13;;;;;;;;;;;;;;;14.06;58.08;100190.34;2085050;28;19973;-45
2021/11/10 04:13:14;;;;;;;;;;;;;;;14.06;58.23;100190.34;2083825;28;19916;-44
2021/11/10 04:14:15;;;;;;;;;;;;;;;14.06;58.13;100194.88;2083079;28;19939;-45
2021/11/10 04:15:15;;;;;;;;;;;;;;;14.05;58.30;100188.59;2081969;28;19989;-44
2021/11/10 04:16:20;;;;;;;;;;;;;;;14.06;58.25;100190.34;2083807;28;19986;-46
2021/11/10 04:17:20;;;;;;;;;;;;;;;14.05;58.12;100188.59;2083184;28;19960;-46
2021/11/10 04:18:20;;;;;;;;;;;;;;;14.05;58.11;100177.75;2083550;28;19916;-44
2021/11/10 04:19:21;;;;;;;;;;;;;;;14.04;58.17;100175.16;2083757;28;20315;-45
2021/11/10 04:20:21;;;;;;;;;;;;;;;14.05;58.23;100177.75;2082253;28;20468;-46
2021/11/10 04:21:22;;;;;;;;;;;;;;;14.04;58.22;100176.03;2085443;28;20302;-45
2021/11/10 04:22:23;;;;;;;;;;;;;;;14.05;58.20;100185.88;2082644;28;19908;-45
2021/11/10 04:23:24;;;;;;;;;;;;;;;14.05;58.16;100177.75;2084353;28;19917;-45
2021/11/10 04:24:24;;;;;;;;;;;;;;;14.06;58.19;100184.91;2084611;28;19908;-47
2021/11/10 04:25:24;;;;;;;;;;;;;;;14.06;58.19;100189.44;2081513;28;20389;-45
2021/11/10 04:26:27;;;;;;;;;;;;;;;14.06;58.11;100186.75;2081925;28;20003;-45
2021/11/10 04:27:28;;;;;;;;;;;;;;;14.06;58.25;100186.75;2083030;28;20011;-44
2021/11/10 04:28:28;;;;;;;;;;;;;;;14.06;58.26;100175.88;2084655;28;19916;-44
2021/11/10 04:29:29;;;;;;;;;;;;;;;14.05;58.21;100183.16;2082381;28;20009;-45
2021/11/10 04:30:29;;;;;;;;;;;;;;;14.05;58.09;100175.03;2084138;28;19947;-45
2021/11/10 04:31:30;;;;;;;;;;;;;;;14.05;58.10;100182.31;2084164;28;19943;-44
2021/11/10 04:32:30;;;;;;;;;;;;;;;14.03;58.22;100174.28;2082031;28;19947;-45
2021/11/10 04:33:31;;;;;;;;;;;;;;;14.04;58.32;100181.44;2085370;28;20366;-44
2021/11/10 04:34:31;;;;;;;;;;;;;;;14.06;58.13;100187.63;2083134;28;19923;-44
2021/11/10 04:35:32;;;;;;;;;;;;;;;14.06;58.08;100184.03;2084178;28;20382;-44
2021/11/10 04:36:33;;;;;;;;;;;;;;;14.05;58.18;100172.31;2083444;28;19921;-44
2021/11/10 04:37:33;;;;;;;;;;;;;;;14.06;58.19;100178.59;2082295;28;19917;-44
2021/11/10 04:38:34;;;;;;;;;;;;;;;14.06;58.22;100178.59;2085045;28;20445;-44
2021/11/10 04:39:34;;;;;;;;;;;;;;;14.04;58.18;100170.59;2082454;28;19982;-44
2021/11/10 04:40:34;;;;;;;;;;;;;;;14.04;58.16;100167.91;2083877;28;20653;-44
2021/11/10 04:41:34;;;;;;;;;;;;;;;14.05;58.18;100171.47;2084663;28;20370;-44
2021/11/10 04:42:35;;;;;;;;;;;;;;;14.04;58.20;100175.16;2083202;28;19916;-44
2021/11/10 04:43:36;;;;;;;;;;;;;;;14.04;58.14;100184.16;2084383;28;19927;-44
2021/11/10 04:44:36;;;;;;;;;;;;;;;14.03;58.20;100185.13;2084420;28;19966;-45
2021/11/10 04:45:38;;;;;;;;;;;;;;;14.03;58.31;100193.25;2084057;28;20321;-44
2021/11/10 04:46:39;;;;;;;;;;;;;;;14.05;58.21;100187.72;2084307;28;20469;-44
2021/11/10 04:47:39;;;;;;;;;;;;;;;14.04;58.19;100181.44;2083090;28;20313;-45
2021/11/10 04:48:40;;;;;;;;;;;;;;;14.04;58.28;100176.03;2084602;28;20386;-45
2021/11/10 04:49:40;;;;;;;;;;;;;;;14.03;58.17;100185.13;2082733;28;19909;-44
2021/11/10 04:50:43;;;;;;;;;;;;;;;14.03;58.18;100179.69;2083063;28;19923;-45
2021/11/10 04:51:44;;;;;;;;;;;;;;;14.02;58.14;100172.56;2086120;28;19916;-45
2021/11/10 04:52:46;;;;;;;;;;;;;;;14.04;58.19;100183.31;2083243;28;19909;-45
2021/11/10 04:53:48;;;;;;;;;;;;;;;14.04;58.26;100191.44;2075318;28;19917;-44
2021/11/10 04:54:51;;;;;;;;;;;;;;;14.04;58.18;100181.44;2074383;28;19938;-45
2021/11/10 04:55:51;;;;;;;;;;;;;;;14.02;58.25;100183.41;2082052;28;19923;-44
2021/11/10 04:56:52;;;;;;;;;;;;;;;14.02;58.20;100183.41;2083865;28;19987;-45
2021/11/10 04:57:52;;;;;;;;;;;;;;;14.04;58.20;100188.72;2085241;28;19927;-44
2021/11/10 04:58:53;;;;;;;;;;;;;;;14.04;58.20;100186.00;2083256;28;19916;-44
2021/11/10 04:59:53;;;;;;;;;;;;;;;14.03;58.24;100185.13;2083760;28;19917;-44
2021/11/10 05:00:53;;;;;;;;;;;;;;;14.03;58.15;100186.97;2085054;28;19916;-44
2021/11/10 05:03:13;;;;;;;;;;;;;;;14.04;58.16;100186.88;2076881;28;19924;-45
2021/11/10 05:04:13;;;;;;;;;;;;;;;14.04;58.18;100181.44;2084755;28;19911;-44
2021/11/10 05:05:14;;;;;;;;;;;;;;;14.04;58.20;100192.28;2084414;28;20435;-44
2021/11/10 05:06:14;;;;;;;;;;;;;;;14.03;58.15;100187.84;2078025;28;19917;-44
2021/11/10 05:07:15;;;;;;;;;;;;;;;14.03;58.19;100189.69;2081575;28;19908;-45
2021/11/10 05:08:15;;;;;;;;;;;;;;;14.03;58.17;100195.97;2081738;28;19954;-45
2021/11/10 05:09:16;;;;;;;;;;;;;;;14.02;58.14;100191.53;2081470;28;20285;-45
2021/11/10 05:10:17;;;;;;;;;;;;;;;14.02;58.15;100194.25;2081372;28;20413;-44
2021/11/10 05:11:18;;;;;;;;;;;;;;;14.02;58.19;100199.66;2084396;28;20207;-44
2021/11/10 05:12:18;;;;;;;;;;;;;;;14.03;58.20;100192.41;2085839;28;19943;-44
2021/11/10 05:13:19;;;;;;;;;;;;;;;14.02;58.14;100199.66;2079153;28;19916;-45